sensor_id;sensor_type;location;lat;lon;timestamp;pressure;altitude;pressure_sealevel;temperature;humidity
74921;BME280;63483;47.384;8.860;2023-05-24T00:00:58;94682.66;;;13.70;50.67
74921;BME280;63483;47.384;8.860;2023-05-24T00:03:24;94683.66;;;13.69;50.61
74921;BME280;63483;47.384;8.860;2023-05-24T00:05:49;94684.28;;;13.71;50.20
74921;BME280;63483;47.384;8.860;2023-05-24T00:08:16;94677.13;;;13.65;49.89
74921;BME280;63483;47.384;8.860;2023-05-24T00:10:42;94676.75;;;13.61;50.10
74921;BME280;63483;47.384;8.860;2023-05-24T00:13:07;94672.28;;;13.55;50.20
74921;BME280;63483;47.384;8.860;2023-05-24T00:15:33;94672.88;;;13.57;50.95
74921;BME280;63483;47.384;8.860;2023-05-24T00:17:58;94669.03;;;13.60;50.70
74921;BME280;63483;47.384;8.860;2023-05-24T00:20:23;94672.66;;;13.59;49.88
74921;BME280;63483;47.384;8.860;2023-05-24T00:22:49;94680.38;;;13.53;50.12
74921;BME280;63483;47.384;8.860;2023-05-24T00:25:14;94683.16;;;13.45;50.40
74921;BME280;63483;47.384;8.860;2023-05-24T00:27:39;94678.50;;;13.47;50.70
74921;BME280;63483;47.384;8.860;2023-05-24T00:30:05;94676.91;;;13.46;50.87
74921;BME280;63483;47.384;8.860;2023-05-24T00:32:31;94676.25;;;13.44;50.66
74921;BME280;63483;47.384;8.860;2023-05-24T00:34:56;94685.72;;;13.32;50.76
74921;BME280;63483;47.384;8.860;2023-05-24T00:37:22;94676.00;;;13.32;50.52
74921;BME280;63483;47.384;8.860;2023-05-24T00:39:47;94673.75;;;13.23;50.96
74921;BME280;63483;47.384;8.860;2023-05-24T00:42:13;94676.00;;;13.26;50.84
74921;BME280;63483;47.384;8.860;2023-05-24T00:44:38;94682.66;;;13.22;50.61
74921;BME280;63483;47.384;8.860;2023-05-24T00:47:03;94674.50;;;13.10;51.17
74921;BME280;63483;47.384;8.860;2023-05-24T00:49:29;94678.97;;;13.09;51.43
74921;BME280;63483;47.384;8.860;2023-05-24T00:51:55;94680.81;;;13.15;51.36
74921;BME280;63483;47.384;8.860;2023-05-24T00:54:21;94676.59;;;13.21;51.56
74921;BME280;63483;47.384;8.860;2023-05-24T00:56:47;94674.16;;;13.26;51.69
74921;BME280;63483;47.384;8.860;2023-05-24T00:59:13;94674.59;;;13.30;51.56
74921;BME280;63483;47.384;8.860;2023-05-24T01:01:38;94671.59;;;13.33;51.94
74921;BME280;63483;47.384;8.860;2023-05-24T01:04:06;94672.63;;;13.39;51.64
74921;BME280;63483;47.384;8.860;2023-05-24T01:06:37;94671.00;;;13.44;51.75
74921;BME280;63483;47.384;8.860;2023-05-24T01:09:19;94675.25;;;13.45;51.91
74921;BME280;63483;47.384;8.860;2023-05-24T01:14:26;94670.59;;;13.47;51.74
74921;BME280;63483;47.384;8.860;2023-05-24T01:17:05;94665.34;;;13.47;51.80
74921;BME280;63483;47.384;8.860;2023-05-24T01:19:50;94669.00;;;13.46;51.58
74921;BME280;63483;47.384;8.860;2023-05-24T01:25:26;94657.63;;;13.39;50.44
74921;BME280;63483;47.384;8.860;2023-05-24T01:27:57;94656.00;;;13.31;50.87
74921;BME280;63483;47.384;8.860;2023-05-24T01:30:25;94657.19;;;13.29;50.83
74921;BME280;63483;47.384;8.860;2023-05-24T01:32:51;94665.63;;;13.17;50.89
74921;BME280;63483;47.384;8.860;2023-05-24T01:35:17;94657.34;;;13.14;50.82
74921;BME280;63483;47.384;8.860;2023-05-24T01:37:42;94659.16;;;13.13;51.24
74921;BME280;63483;47.384;8.860;2023-05-24T01:40:09;94654.31;;;13.17;50.59
74921;BME280;63483;47.384;8.860;2023-05-24T01:42:52;94650.56;;;12.98;51.10
74921;BME280;63483;47.384;8.860;2023-05-24T01:45:34;94657.47;;;12.99;51.41
74921;BME280;63483;47.384;8.860;2023-05-24T01:48:08;94649.78;;;13.04;51.77
74921;BME280;63483;47.384;8.860;2023-05-24T01:50:54;94655.50;;;13.08;51.74
74921;BME280;63483;47.384;8.860;2023-05-24T01:53:23;94663.19;;;13.09;51.65
74921;BME280;63483;47.384;8.860;2023-05-24T01:55:53;94658.34;;;13.13;51.96
74921;BME280;63483;47.384;8.860;2023-05-24T01:58:21;94669.28;;;13.16;51.67
74921;BME280;63483;47.384;8.860;2023-05-24T02:00:47;94663.63;;;13.20;51.97
74921;BME280;63483;47.384;8.860;2023-05-24T02:03:13;94652.72;;;13.23;50.74
74921;BME280;63483;47.384;8.860;2023-05-24T02:05:39;94654.50;;;13.15;51.62
74921;BME280;63483;47.384;8.860;2023-05-24T02:08:05;94648.66;;;13.13;51.15
74921;BME280;63483;47.384;8.860;2023-05-24T02:10:30;94650.63;;;13.11;51.02
74921;BME280;63483;47.384;8.860;2023-05-24T02:12:55;94650.19;;;13.01;50.75
74921;BME280;63483;47.384;8.860;2023-05-24T02:15:21;94651.56;;;12.97;51.30
74921;BME280;63483;47.384;8.860;2023-05-24T02:17:47;94644.72;;;12.96;51.08
74921;BME280;63483;47.384;8.860;2023-05-24T02:20:12;94643.22;;;12.87;51.31
74921;BME280;63483;47.384;8.860;2023-05-24T02:22:38;94647.69;;;12.86;51.51
74921;BME280;63483;47.384;8.860;2023-05-24T02:25:04;94646.06;;;12.85;51.29
74921;BME280;63483;47.384;8.860;2023-05-24T02:27:29;94647.50;;;12.88;51.57
74921;BME280;63483;47.384;8.860;2023-05-24T02:29:55;94646.03;;;12.78;51.52
74921;BME280;63483;47.384;8.860;2023-05-24T02:32:20;94639.03;;;12.64;51.46
74921;BME280;63483;47.384;8.860;2023-05-24T02:34:45;94650.22;;;12.44;52.06
74921;BME280;63483;47.384;8.860;2023-05-24T02:37:11;94638.53;;;12.47;52.00
74921;BME280;63483;47.384;8.860;2023-05-24T02:39:40;94643.81;;;12.54;51.96
74921;BME280;63483;47.384;8.860;2023-05-24T02:42:06;94636.31;;;12.51;52.04
74921;BME280;63483;47.384;8.860;2023-05-24T02:44:33;94638.84;;;12.37;52.31
74921;BME280;63483;47.384;8.860;2023-05-24T02:46:58;94636.97;;;12.53;51.08
74921;BME280;63483;47.384;8.860;2023-05-24T02:49:23;94633.47;;;12.45;51.30
74921;BME280;63483;47.384;8.860;2023-05-24T02:51:49;94639.13;;;12.42;51.53
74921;BME280;63483;47.384;8.860;2023-05-24T02:54:15;94640.09;;;12.41;51.50
74921;BME280;63483;47.384;8.860;2023-05-24T02:56:41;94638.09;;;12.43;51.72
74921;BME280;63483;47.384;8.860;2023-05-24T02:59:07;94642.00;;;12.26;51.99
74921;BME280;63483;47.384;8.860;2023-05-24T03:01:32;94635.53;;;12.22;52.37
74921;BME280;63483;47.384;8.860;2023-05-24T03:03:58;94637.41;;;12.06;52.66
74921;BME280;63483;47.384;8.860;2023-05-24T03:06:24;94640.78;;;12.22;52.36
74921;BME280;63483;47.384;8.860;2023-05-24T03:08:49;94640.22;;;12.05;52.44
74921;BME280;63483;47.384;8.860;2023-05-24T03:11:15;94635.03;;;12.11;52.24
74921;BME280;63483;47.384;8.860;2023-05-24T03:13:40;94645.66;;;11.82;53.02
74921;BME280;63483;47.384;8.860;2023-05-24T03:16:06;94634.44;;;11.88;52.84
74921;BME280;63483;47.384;8.860;2023-05-24T03:18:32;94638.28;;;11.92;52.89
74921;BME280;63483;47.384;8.860;2023-05-24T03:20:57;94637.78;;;11.82;52.47
74921;BME280;63483;47.384;8.860;2023-05-24T03:23:22;94645.28;;;11.85;52.90
74921;BME280;63483;47.384;8.860;2023-05-24T03:25:48;94647.22;;;11.76;53.08
74921;BME280;63483;47.384;8.860;2023-05-24T03:28:13;94642.00;;;11.83;52.88
74921;BME280;63483;47.384;8.860;2023-05-24T03:30:39;94648.88;;;11.84;52.58
74921;BME280;63483;47.384;8.860;2023-05-24T03:33:05;94650.28;;;12.01;52.43
74921;BME280;63483;47.384;8.860;2023-05-24T03:35:30;94645.53;;;11.90;53.04
74921;BME280;63483;47.384;8.860;2023-05-24T03:37:55;94642.75;;;11.76;53.24
74921;BME280;63483;47.384;8.860;2023-05-24T03:40:21;94636.75;;;11.83;53.02
74921;BME280;63483;47.384;8.860;2023-05-24T03:42:46;94642.75;;;11.76;53.46
74921;BME280;63483;47.384;8.860;2023-05-24T03:45:11;94645.75;;;11.73;53.36
74921;BME280;63483;47.384;8.860;2023-05-24T03:47:36;94642.06;;;11.68;53.51
74921;BME280;63483;47.384;8.860;2023-05-24T03:50:02;94651.25;;;11.78;53.16
74921;BME280;63483;47.384;8.860;2023-05-24T03:52:27;94655.00;;;11.69;53.24
74921;BME280;63483;47.384;8.860;2023-05-24T03:54:53;94660.13;;;11.77;53.23
74921;BME280;63483;47.384;8.860;2023-05-24T03:57:19;94658.88;;;11.73;53.44
74921;BME280;63483;47.384;8.860;2023-05-24T03:59:44;94657.81;;;11.68;53.38
74921;BME280;63483;47.384;8.860;2023-05-24T04:02:09;94661.75;;;11.78;52.90
74921;BME280;63483;47.384;8.860;2023-05-24T04:04:35;94665.00;;;11.81;53.11
74921;BME280;63483;47.384;8.860;2023-05-24T04:07:01;94667.88;;;11.64;52.68
74921;BME280;63483;47.384;8.860;2023-05-24T04:09:27;94670.22;;;11.59;53.76
74921;BME280;63483;47.384;8.860;2023-05-24T04:11:52;94663.50;;;11.71;52.90
74921;BME280;63483;47.384;8.860;2023-05-24T04:14:17;94668.13;;;11.69;53.14
74921;BME280;63483;47.384;8.860;2023-05-24T04:16:43;94663.75;;;11.76;53.00
74921;BME280;63483;47.384;8.860;2023-05-24T04:19:09;94656.25;;;11.73;52.61
74921;BME280;63483;47.384;8.860;2023-05-24T04:21:36;94652.75;;;11.66;52.62
74921;BME280;63483;47.384;8.860;2023-05-24T04:24:01;94660.25;;;11.48;52.54
74921;BME280;63483;47.384;8.860;2023-05-24T04:26:27;94661.84;;;11.49;52.87
74921;BME280;63483;47.384;8.860;2023-05-24T04:28:53;94659.94;;;11.21;52.96
74921;BME280;63483;47.384;8.860;2023-05-24T04:31:20;94665.84;;;11.45;52.43
74921;BME280;63483;47.384;8.860;2023-05-24T04:33:45;94662.72;;;11.56;51.98
74921;BME280;63483;47.384;8.860;2023-05-24T04:36:12;94651.19;;;11.35;52.64
74921;BME280;63483;47.384;8.860;2023-05-24T04:38:38;94659.41;;;11.47;52.03
74921;BME280;63483;47.384;8.860;2023-05-24T04:41:04;94656.88;;;11.54;52.13
74921;BME280;63483;47.384;8.860;2023-05-24T04:43:33;94657.38;;;11.64;52.30
74921;BME280;63483;47.384;8.860;2023-05-24T04:45:58;94656.00;;;11.68;51.53
74921;BME280;63483;47.384;8.860;2023-05-24T04:48:24;94661.59;;;11.65;51.36
74921;BME280;63483;47.384;8.860;2023-05-24T04:50:53;94661.97;;;11.62;50.98
74921;BME280;63483;47.384;8.860;2023-05-24T04:53:20;94665.72;;;11.53;51.59
74921;BME280;63483;47.384;8.860;2023-05-24T04:55:46;94672.16;;;11.50;51.42
74921;BME280;63483;47.384;8.860;2023-05-24T04:58:11;94666.72;;;11.52;51.74
74921;BME280;63483;47.384;8.860;2023-05-24T05:00:37;94670.78;;;11.54;51.56
74921;BME280;63483;47.384;8.860;2023-05-24T05:03:02;94666.00;;;11.58;51.17
74921;BME280;63483;47.384;8.860;2023-05-24T05:05:28;94672.47;;;11.62;50.93
74921;BME280;63483;47.384;8.860;2023-05-24T05:07:53;94666.63;;;11.60;51.13
74921;BME280;63483;47.384;8.860;2023-05-24T05:10:18;94666.63;;;11.60;51.52
74921;BME280;63483;47.384;8.860;2023-05-24T05:12:44;94670.13;;;11.67;51.11
74921;BME280;63483;47.384;8.860;2023-05-24T05:15:09;94680.25;;;11.70;50.91
74921;BME280;63483;47.384;8.860;2023-05-24T05:17:35;94676.13;;;11.61;50.99
74921;BME280;63483;47.384;8.860;2023-05-24T05:20:01;94677.47;;;11.57;50.77
74921;BME280;63483;47.384;8.860;2023-05-24T05:22:27;94690.22;;;11.60;50.55
74921;BME280;63483;47.384;8.860;2023-05-24T05:24:52;94684.28;;;11.51;50.25
74921;BME280;63483;47.384;8.860;2023-05-24T05:27:17;94694.34;;;11.48;50.80
74921;BME280;63483;47.384;8.860;2023-05-24T05:29:43;94698.53;;;11.12;51.51
74921;BME280;63483;47.384;8.860;2023-05-24T05:32:08;94693.28;;;11.27;51.34
74921;BME280;63483;47.384;8.860;2023-05-24T05:34:34;94695.19;;;11.18;51.43
74921;BME280;63483;47.384;8.860;2023-05-24T05:36:59;94681.88;;;11.35;51.68
74921;BME280;63483;47.384;8.860;2023-05-24T05:39:24;94681.59;;;11.45;50.48
74921;BME280;63483;47.384;8.860;2023-05-24T05:41:50;94686.66;;;11.31;51.27
74921;BME280;63483;47.384;8.860;2023-05-24T05:44:15;94676.63;;;11.35;50.86
74921;BME280;63483;47.384;8.860;2023-05-24T05:46:40;94686.47;;;11.18;51.63
74921;BME280;63483;47.384;8.860;2023-05-24T05:49:08;94688.66;;;11.14;51.82
74921;BME280;63483;47.384;8.860;2023-05-24T05:51:33;94689.28;;;11.16;52.25
74921;BME280;63483;47.384;8.860;2023-05-24T05:53:59;94690.50;;;11.14;52.10
74921;BME280;63483;47.384;8.860;2023-05-24T05:56:24;94691.72;;;11.18;51.96
74921;BME280;63483;47.384;8.860;2023-05-24T05:58:51;94695.44;;;11.23;51.42
74921;BME280;63483;47.384;8.860;2023-05-24T06:01:16;94695.78;;;11.35;51.14
74921;BME280;63483;47.384;8.860;2023-05-24T06:03:41;94700.09;;;11.43;51.34
74921;BME280;63483;47.384;8.860;2023-05-24T06:06:07;94702.81;;;11.50;51.44
74921;BME280;63483;47.384;8.860;2023-05-24T06:08:32;94693.50;;;11.47;52.13
74921;BME280;63483;47.384;8.860;2023-05-24T06:11:00;94695.13;;;11.48;51.90
74921;BME280;63483;47.384;8.860;2023-05-24T06:13:25;94699.44;;;11.56;51.21
74921;BME280;63483;47.384;8.860;2023-05-24T06:15:52;94699.03;;;11.52;51.22
74921;BME280;63483;47.384;8.860;2023-05-24T06:18:18;94699.44;;;11.56;51.11
74921;BME280;63483;47.384;8.860;2023-05-24T06:20:43;94699.25;;;11.57;51.21
74921;BME280;63483;47.384;8.860;2023-05-24T06:23:08;94699.56;;;11.48;51.40
74921;BME280;63483;47.384;8.860;2023-05-24T06:25:34;94704.53;;;11.42;51.41
74921;BME280;63483;47.384;8.860;2023-05-24T06:27:59;94692.94;;;11.15;52.04
74921;BME280;63483;47.384;8.860;2023-05-24T06:30:24;94697.69;;;11.12;52.39
74921;BME280;63483;47.384;8.860;2023-05-24T06:32:50;94705.84;;;11.17;52.25
74921;BME280;63483;47.384;8.860;2023-05-24T06:35:15;94706.28;;;10.90;52.59
74921;BME280;63483;47.384;8.860;2023-05-24T06:37:41;94700.44;;;11.03;52.44
74921;BME280;63483;47.384;8.860;2023-05-24T06:40:06;94710.19;;;11.10;52.25
74921;BME280;63483;47.384;8.860;2023-05-24T06:42:34;94713.97;;;10.92;52.96
74921;BME280;63483;47.384;8.860;2023-05-24T06:45:00;94709.03;;;10.97;52.50
74921;BME280;63483;47.384;8.860;2023-05-24T06:47:25;94720.84;;;11.08;52.52
74921;BME280;63483;47.384;8.860;2023-05-24T06:49:54;94712.25;;;11.29;51.52
74921;BME280;63483;47.384;8.860;2023-05-24T06:52:19;94713.34;;;11.05;52.38
74921;BME280;63483;47.384;8.860;2023-05-24T06:54:44;94715.69;;;11.00;53.04
74921;BME280;63483;47.384;8.860;2023-05-24T06:57:10;94726.09;;;10.93;53.17
74921;BME280;63483;47.384;8.860;2023-05-24T06:59:35;94714.16;;;11.05;52.15
74921;BME280;63483;47.384;8.860;2023-05-24T07:02:01;94719.50;;;11.12;52.03
74921;BME280;63483;47.384;8.860;2023-05-24T07:04:26;94717.31;;;11.16;52.21
74921;BME280;63483;47.384;8.860;2023-05-24T07:06:52;94716.69;;;11.14;51.82
74921;BME280;63483;47.384;8.860;2023-05-24T07:09:18;94711.47;;;10.99;51.97
74921;BME280;63483;47.384;8.860;2023-05-24T07:11:44;94718.19;;;10.78;52.81
74921;BME280;63483;47.384;8.860;2023-05-24T07:14:09;94711.66;;;10.97;52.88
74921;BME280;63483;47.384;8.860;2023-05-24T07:16:35;94711.81;;;11.11;52.15
74921;BME280;63483;47.384;8.860;2023-05-24T07:19:00;94718.06;;;10.95;52.96
74921;BME280;63483;47.384;8.860;2023-05-24T07:21:26;94726.91;;;10.94;52.96
74921;BME280;63483;47.384;8.860;2023-05-24T07:23:51;94720.69;;;11.10;52.18
74921;BME280;63483;47.384;8.860;2023-05-24T07:26:16;94733.63;;;10.88;53.16
74921;BME280;63483;47.384;8.860;2023-05-24T07:28:42;94734.94;;;10.92;53.12
74921;BME280;63483;47.384;8.860;2023-05-24T07:31:08;94733.25;;;10.76;53.19
74921;BME280;63483;47.384;8.860;2023-05-24T07:33:37;94738.13;;;10.64;53.60
74921;BME280;63483;47.384;8.860;2023-05-24T07:36:04;94738.94;;;10.65;53.30
74921;BME280;63483;47.384;8.860;2023-05-24T07:38:30;94727.13;;;10.84;53.48
74921;BME280;63483;47.384;8.860;2023-05-24T07:40:58;94727.47;;;10.81;53.40
74921;BME280;63483;47.384;8.860;2023-05-24T07:43:23;94723.28;;;10.95;53.55
74921;BME280;63483;47.384;8.860;2023-05-24T07:45:49;94732.94;;;10.94;53.61
74921;BME280;63483;47.384;8.860;2023-05-24T07:48:14;94721.59;;;11.17;52.37
74921;BME280;63483;47.384;8.860;2023-05-24T07:50:40;94719.75;;;11.02;53.37
74921;BME280;63483;47.384;8.860;2023-05-24T07:53:05;94725.38;;;10.99;53.22
74921;BME280;63483;47.384;8.860;2023-05-24T07:55:31;94723.00;;;10.89;53.68
74921;BME280;63483;47.384;8.860;2023-05-24T07:57:56;94712.34;;;10.91;52.83
74921;BME280;63483;47.384;8.860;2023-05-24T08:00:22;94723.47;;;11.08;52.36
74921;BME280;63483;47.384;8.860;2023-05-24T08:02:47;94716.59;;;11.07;52.55
74921;BME280;63483;47.384;8.860;2023-05-24T08:05:13;94715.44;;;11.10;51.94
74921;BME280;63483;47.384;8.860;2023-05-24T08:07:38;94727.94;;;10.84;53.08
74921;BME280;63483;47.384;8.860;2023-05-24T08:10:06;94719.97;;;10.63;53.70
74921;BME280;63483;47.384;8.860;2023-05-24T08:12:32;94722.97;;;10.74;53.05
74921;BME280;63483;47.384;8.860;2023-05-24T08:14:57;94738.31;;;10.78;53.09
74921;BME280;63483;47.384;8.860;2023-05-24T08:17:23;94737.09;;;10.88;52.59
74921;BME280;63483;47.384;8.860;2023-05-24T08:19:49;94729.84;;;10.76;53.54
74921;BME280;63483;47.384;8.860;2023-05-24T08:22:14;94741.13;;;10.76;53.64
74921;BME280;63483;47.384;8.860;2023-05-24T08:24:40;94733.63;;;10.88;53.40
74921;BME280;63483;47.384;8.860;2023-05-24T08:27:05;94738.69;;;10.74;53.50
74921;BME280;63483;47.384;8.860;2023-05-24T08:29:32;94735.56;;;10.94;52.60
74921;BME280;63483;47.384;8.860;2023-05-24T08:31:57;94750.22;;;10.65;52.93
74921;BME280;63483;47.384;8.860;2023-05-24T08:34:22;94739.25;;;10.85;52.90
74921;BME280;63483;47.384;8.860;2023-05-24T08:36:48;94743.13;;;10.89;52.93
74921;BME280;63483;47.384;8.860;2023-05-24T08:39:14;94735.06;;;10.76;53.30
74921;BME280;63483;47.384;8.860;2023-05-24T08:41:40;94735.28;;;10.89;53.29
74921;BME280;63483;47.384;8.860;2023-05-24T08:44:05;94742.19;;;10.90;52.94
74921;BME280;63483;47.384;8.860;2023-05-24T08:46:35;94745.06;;;10.72;52.93
74921;BME280;63483;47.384;8.860;2023-05-24T08:49:02;94757.72;;;10.30;53.75
74921;BME280;63483;47.384;8.860;2023-05-24T08:51:29;94745.63;;;10.67;53.00
74921;BME280;63483;47.384;8.860;2023-05-24T08:53:57;94751.91;;;10.43;53.74
74921;BME280;63483;47.384;8.860;2023-05-24T08:56:24;94751.13;;;10.58;53.19
74921;BME280;63483;47.384;8.860;2023-05-24T08:58:51;94748.75;;;10.48;53.40
74921;BME280;63483;47.384;8.860;2023-05-24T09:01:17;94757.38;;;10.71;53.77
74921;BME280;63483;47.384;8.860;2023-05-24T09:03:45;94762.94;;;10.30;54.64
74921;BME280;63483;47.384;8.860;2023-05-24T09:06:12;94765.88;;;10.35;54.73
74921;BME280;63483;47.384;8.860;2023-05-24T09:08:37;94763.53;;;10.41;54.44
74921;BME280;63483;47.384;8.860;2023-05-24T09:11:06;94759.78;;;10.35;54.61
74921;BME280;63483;47.384;8.860;2023-05-24T09:13:32;94761.41;;;10.59;54.29
74921;BME280;63483;47.384;8.860;2023-05-24T09:15:59;94767.16;;;10.40;53.48
74921;BME280;63483;47.384;8.860;2023-05-24T09:18:25;94763.81;;;9.99;54.70
74921;BME280;63483;47.384;8.860;2023-05-24T09:20:50;94764.94;;;10.28;54.10
74921;BME280;63483;47.384;8.860;2023-05-24T09:23:16;94771.16;;;10.27;55.17
74921;BME280;63483;47.384;8.860;2023-05-24T09:25:43;94767.91;;;10.25;54.35
74921;BME280;63483;47.384;8.860;2023-05-24T09:28:12;94773.78;;;10.27;54.79
74921;BME280;63483;47.384;8.860;2023-05-24T09:30:41;94775.69;;;10.10;54.99
74921;BME280;63483;47.384;8.860;2023-05-24T09:33:07;94778.59;;;9.84;55.43
74921;BME280;63483;47.384;8.860;2023-05-24T09:35:32;94780.31;;;9.68;55.10
74921;BME280;63483;47.384;8.860;2023-05-24T09:37:58;94782.19;;;9.83;55.00
74921;BME280;63483;47.384;8.860;2023-05-24T09:40:26;94785.16;;;9.88;55.12
74921;BME280;63483;47.384;8.860;2023-05-24T09:43:02;94782.41;;;9.73;55.25
74921;BME280;63483;47.384;8.860;2023-05-24T09:45:28;94778.69;;;9.59;56.21
74921;BME280;63483;47.384;8.860;2023-05-24T09:47:53;94778.28;;;9.87;55.47
74921;BME280;63483;47.384;8.860;2023-05-24T09:50:19;94782.94;;;10.23;54.08
74921;BME280;63483;47.384;8.860;2023-05-24T09:52:44;94777.16;;;10.13;54.88
74921;BME280;63483;47.384;8.860;2023-05-24T09:55:14;94780.63;;;10.05;55.67
74921;BME280;63483;47.384;8.860;2023-05-24T09:57:39;94782.63;;;10.26;54.85
74921;BME280;63483;47.384;8.860;2023-05-24T10:00:06;94775.41;;;10.28;54.03
74921;BME280;63483;47.384;8.860;2023-05-24T10:02:38;94782.13;;;9.99;54.21
74921;BME280;63483;47.384;8.860;2023-05-24T10:05:04;94793.19;;;10.33;53.13
74921;BME280;63483;47.384;8.860;2023-05-24T10:07:32;94782.53;;;9.80;54.87
74921;BME280;63483;47.384;8.860;2023-05-24T10:09:59;94784.81;;;9.91;55.09
74921;BME280;63483;47.384;8.860;2023-05-24T10:12:25;94784.84;;;10.14;54.43
74921;BME280;63483;47.384;8.860;2023-05-24T10:14:52;94791.44;;;10.02;54.35
74921;BME280;63483;47.384;8.860;2023-05-24T10:17:21;94791.31;;;9.95;54.80
74921;BME280;63483;47.384;8.860;2023-05-24T10:19:47;94788.28;;;10.07;54.11
74921;BME280;63483;47.384;8.860;2023-05-24T10:22:12;94794.78;;;10.19;53.58
74921;BME280;63483;47.384;8.860;2023-05-24T10:24:41;94792.66;;;9.91;54.50
74921;BME280;63483;47.384;8.860;2023-05-24T10:27:12;94795.50;;;10.05;54.56
74921;BME280;63483;47.384;8.860;2023-05-24T10:29:51;94800.72;;;10.13;53.65
74921;BME280;63483;47.384;8.860;2023-05-24T10:32:23;94795.91;;;9.93;54.28
74921;BME280;63483;47.384;8.860;2023-05-24T10:34:51;94802.38;;;10.06;53.77
74921;BME280;63483;47.384;8.860;2023-05-24T10:37:18;94794.38;;;10.07;53.74
74921;BME280;63483;47.384;8.860;2023-05-24T10:39:43;94798.50;;;9.93;53.88
74921;BME280;63483;47.384;8.860;2023-05-24T10:42:09;94801.28;;;10.00;53.44
74921;BME280;63483;47.384;8.860;2023-05-24T10:44:34;94792.66;;;9.83;54.53
74921;BME280;63483;47.384;8.860;2023-05-24T10:47:09;94793.13;;;9.86;53.86
74921;BME280;63483;47.384;8.860;2023-05-24T10:49:35;94797.75;;;10.16;53.65
74921;BME280;63483;47.384;8.860;2023-05-24T10:52:06;94794.19;;;10.09;52.90
74921;BME280;63483;47.384;8.860;2023-05-24T10:54:32;94799.34;;;10.17;53.73
74921;BME280;63483;47.384;8.860;2023-05-24T10:57:00;94787.69;;;9.96;53.07
74921;BME280;63483;47.384;8.860;2023-05-24T11:01:59;94786.63;;;10.14;52.63
74921;BME280;63483;47.384;8.860;2023-05-24T11:04:29;94791.66;;;9.92;52.55
74921;BME280;63483;47.384;8.860;2023-05-24T11:07:00;94796.66;;;9.62;53.27
74921;BME280;63483;47.384;8.860;2023-05-24T11:09:26;94793.31;;;9.37;53.44
74921;BME280;63483;47.384;8.860;2023-05-24T11:12:14;94801.84;;;9.79;53.31
74921;BME280;63483;47.384;8.860;2023-05-24T11:14:46;94801.19;;;9.77;52.81
74921;BME280;63483;47.384;8.860;2023-05-24T11:17:12;94803.06;;;9.99;52.84
74921;BME280;63483;47.384;8.860;2023-05-24T11:19:45;94800.84;;;10.11;52.53
74921;BME280;63483;47.384;8.860;2023-05-24T11:22:12;94805.38;;;9.94;52.87
74921;BME280;63483;47.384;8.860;2023-05-24T11:24:39;94796.13;;;9.75;53.61
74921;BME280;63483;47.384;8.860;2023-05-24T11:27:05;94804.13;;;9.82;53.93
74921;BME280;63483;47.384;8.860;2023-05-24T11:29:31;94795.59;;;9.88;53.43
74921;BME280;63483;47.384;8.860;2023-05-24T11:31:58;94796.06;;;9.92;53.27
74921;BME280;63483;47.384;8.860;2023-05-24T11:34:30;94798.47;;;9.62;54.31
74921;BME280;63483;47.384;8.860;2023-05-24T11:36:57;94792.03;;;9.73;52.34
74921;BME280;63483;47.384;8.860;2023-05-24T11:39:23;94796.03;;;9.60;52.84
74921;BME280;63483;47.384;8.860;2023-05-24T11:41:53;94795.81;;;9.22;53.90
74921;BME280;63483;47.384;8.860;2023-05-24T11:44:18;94800.41;;;9.20;53.23
74921;BME280;63483;47.384;8.860;2023-05-24T11:46:44;94798.72;;;9.44;52.80
74921;BME280;63483;47.384;8.860;2023-05-24T11:49:14;94794.06;;;9.14;52.44
74921;BME280;63483;47.384;8.860;2023-05-24T11:51:40;94787.41;;;9.51;51.24
74921;BME280;63483;47.384;8.860;2023-05-24T11:54:06;94795.41;;;9.58;51.88
74921;BME280;63483;47.384;8.860;2023-05-24T11:56:32;94793.63;;;9.90;51.86
74921;BME280;63483;47.384;8.860;2023-05-24T11:59:14;94791.00;;;9.90;51.91
74921;BME280;63483;47.384;8.860;2023-05-24T12:01:40;94785.19;;;9.72;51.62
74921;BME280;63483;47.384;8.860;2023-05-24T12:04:06;94784.72;;;9.99;51.89
74921;BME280;63483;47.384;8.860;2023-05-24T12:06:34;94781.44;;;10.06;51.77
74921;BME280;63483;47.384;8.860;2023-05-24T12:09:01;94778.88;;;9.97;51.70
74921;BME280;63483;47.384;8.860;2023-05-24T12:11:29;94784.31;;;10.19;51.72
74921;BME280;63483;47.384;8.860;2023-05-24T12:13:58;94785.16;;;10.11;51.76
74921;BME280;63483;47.384;8.860;2023-05-24T12:16:38;94785.56;;;10.23;51.25
74921;BME280;63483;47.384;8.860;2023-05-24T12:19:04;94779.84;;;10.28;51.53
74921;BME280;63483;47.384;8.860;2023-05-24T12:21:31;94776.69;;;10.32;51.17
74921;BME280;63483;47.384;8.860;2023-05-24T12:24:03;94783.44;;;10.27;51.57
74921;BME280;63483;47.384;8.860;2023-05-24T12:26:39;94780.63;;;10.28;51.33
74921;BME280;63483;47.384;8.860;2023-05-24T12:29:05;94778.59;;;10.38;51.38
74921;BME280;63483;47.384;8.860;2023-05-24T12:31:31;94775.06;;;10.54;50.99
74921;BME280;63483;47.384;8.860;2023-05-24T12:33:56;94777.38;;;10.49;51.09
74921;BME280;63483;47.384;8.860;2023-05-24T12:36:22;94774.88;;;10.56;50.92
74921;BME280;63483;47.384;8.860;2023-05-24T12:38:47;94773.06;;;10.56;50.91
74921;BME280;63483;47.384;8.860;2023-05-24T12:41:13;94769.47;;;10.34;51.56
74921;BME280;63483;47.384;8.860;2023-05-24T12:43:38;94770.88;;;10.60;51.39
74921;BME280;63483;47.384;8.860;2023-05-24T12:46:04;94764.88;;;10.74;50.43
74921;BME280;63483;47.384;8.860;2023-05-24T12:48:30;94769.09;;;10.61;50.83
74921;BME280;63483;47.384;8.860;2023-05-24T12:50:55;94771.75;;;10.76;50.20
74921;BME280;63483;47.384;8.860;2023-05-24T12:53:20;94765.06;;;10.73;50.41
74921;BME280;63483;47.384;8.860;2023-05-24T12:55:48;94764.88;;;10.74;50.46
74921;BME280;63483;47.384;8.860;2023-05-24T12:58:15;94777.25;;;10.81;50.10
74921;BME280;63483;47.384;8.860;2023-05-24T13:00:41;94764.75;;;10.91;49.85
74921;BME280;63483;47.384;8.860;2023-05-24T13:03:09;94777.84;;;10.91;50.17
74921;BME280;63483;47.384;8.860;2023-05-24T13:05:34;94779.53;;;10.84;50.08
74921;BME280;63483;47.384;8.860;2023-05-24T13:08:00;94782.09;;;10.92;49.83